West Bangor, New York
Current Conditions -  °F | °C
As of 2:53 PM on Friday 24 Oct 2014 (Local Time) from KMSS Reporting Station
Broken Clouds Broken Clouds  
Wind Chill: 58°   Ceiling: 11000
Heat Index: 58°   Visibility: 10mi
Dew Point: 43°   Wind: 0mph
Humidity: 58%   Direction: NA
Pressure: 29.86"   Gusts: NA
Location:  44.7973°N, 74.4173°W
Report Text: KMSS 241853Z AUTO 00000KT 10SM FEW037 BKN110 14/06 A2986 RMK AO2 SLP114 T01440061
Loading
Personal Weather Stations






























Interactive Weather Map
Tropical Storm Tracking
New forecast layout! Learn more

10-Day Weather Forecast

Advertisements
Track Severe Weather on mobile